createdAt,value
2023-05-21T06:35:03.012Z,37.81
2023-05-21T06:37:30.351Z,37.30
2023-05-21T06:39:57.291Z,37.31
2023-05-21T06:42:24.218Z,37.52
2023-05-21T06:45:13.802Z,37.46
2023-05-21T06:47:43.755Z,37.77
2023-05-21T06:50:10.836Z,37.85
2023-05-21T06:52:37.681Z,37.55
2023-05-21T06:55:05.207Z,36.93
2023-05-21T06:57:47.921Z,36.67
2023-05-21T07:00:15.049Z,36.86
2023-05-21T07:02:42.647Z,36.95
2023-05-21T07:05:09.939Z,36.08
2023-05-21T07:07:37.344Z,36.08
2023-05-21T07:10:04.463Z,36.22
2023-05-21T07:12:31.411Z,36.42
2023-05-21T07:14:59.361Z,36.32
2023-05-21T07:17:27.017Z,36.43
2023-05-21T07:19:54.037Z,36.77
2023-05-21T07:22:21.172Z,37.45
2023-05-21T07:24:48.002Z,38.17
2023-05-21T07:27:25.214Z,38.68
2023-05-21T07:29:54.172Z,38.97
2023-05-21T07:32:21.728Z,39.39
2023-05-21T07:34:48.819Z,39.80
2023-05-21T07:37:16.205Z,39.85
2023-05-21T07:39:43.071Z,39.51
2023-05-21T07:42:11.088Z,39.78
2023-05-21T07:44:38.157Z,39.89
2023-05-21T07:47:05.218Z,39.69
2023-05-21T07:49:32.394Z,40.31
2023-05-21T07:51:59.212Z,40.39
2023-05-21T07:54:26.433Z,39.92
2023-05-21T07:56:53.594Z,39.64
2023-05-21T07:59:44.487Z,39.61
2023-05-21T08:02:11.686Z,39.88
2023-05-21T08:04:41.022Z,40.07
2023-05-21T08:07:09.920Z,40.62
2023-05-21T08:09:37.105Z,40.63
2023-05-21T08:12:04.872Z,40.44
2023-05-21T08:14:32.190Z,39.89
2023-05-21T08:17:00.029Z,40.20
2023-05-21T08:19:27.144Z,40.24
2023-05-21T08:21:54.187Z,40.84
2023-05-21T08:24:21.701Z,41.00
2023-05-21T08:26:50.686Z,40.58
2023-05-21T08:29:18.141Z,40.82
2023-05-21T08:31:45.354Z,40.81
2023-05-21T08:34:12.532Z,41.18
2023-05-21T08:36:46.388Z,41.09
2023-05-21T08:39:31.496Z,40.61
2023-05-21T08:42:09.709Z,40.52
2023-05-21T08:44:42.201Z,40.31
2023-05-21T08:47:16.359Z,39.96
2023-05-21T08:49:45.673Z,39.99
2023-05-21T08:52:14.216Z,40.24
2023-05-21T08:54:43.446Z,40.50
2023-05-21T08:57:12.560Z,40.64
2023-05-21T08:59:44.551Z,40.83
2023-05-21T09:02:20.110Z,41.20
2023-05-21T16:04:50.008Z,34.74
2023-05-21T16:07:16.922Z,35.13
2023-05-21T16:09:44.508Z,35.48
2023-05-21T16:12:11.250Z,35.60
2023-05-21T16:14:38.058Z,35.87
2023-05-21T16:17:04.979Z,36.21
2023-05-21T16:19:31.872Z,36.22
2023-05-21T16:22:01.159Z,36.15
2023-05-21T16:24:27.914Z,36.12
2023-05-21T16:26:54.656Z,36.29
2023-05-21T16:29:22.093Z,36.21
2023-05-21T16:31:49.182Z,36.11
2023-05-21T16:34:16.175Z,36.15
2023-05-21T16:36:43.087Z,36.07
2023-05-21T16:39:09.879Z,36.22
2023-05-21T16:41:36.840Z,35.84
2023-05-21T16:44:03.719Z,35.79
2023-05-21T16:46:31.058Z,35.84
2023-05-21T16:48:58.082Z,35.96
2023-05-21T16:51:24.853Z,35.96
2023-05-21T16:53:51.635Z,36.18
2023-05-21T16:56:18.548Z,36.32
2023-05-21T16:58:45.401Z,36.34
2023-05-21T17:01:12.241Z,36.48
2023-05-21T17:03:42.438Z,36.62
2023-05-21T17:06:10.163Z,36.64
2023-05-21T17:08:36.896Z,36.99
2023-05-21T17:11:03.742Z,36.95
2023-05-21T17:13:30.855Z,37.01
2023-05-21T17:15:57.793Z,37.11
2023-05-21T17:18:25.272Z,37.33
2023-05-21T17:20:52.121Z,37.32
2023-05-21T17:23:19.090Z,37.41
2023-05-21T17:25:46.361Z,37.58
2023-05-21T17:28:13.218Z,37.74
2023-05-21T17:30:40.061Z,37.78
2023-05-21T17:33:07.757Z,38.02
2023-05-21T17:35:34.876Z,37.98
2023-05-21T17:38:01.748Z,37.95
2023-05-21T17:40:28.502Z,38.21
2023-05-21T17:42:55.482Z,38.46
2023-05-21T17:45:22.236Z,38.53
2023-05-21T17:47:49.331Z,38.54
2023-05-21T17:50:16.551Z,38.57
2023-05-21T17:52:43.271Z,38.64
2023-05-21T17:55:10.785Z,38.65
2023-05-21T17:57:37.548Z,38.74
2023-05-21T18:00:06.803Z,38.86
2023-05-21T18:02:38.920Z,38.96
2023-05-21T18:05:05.893Z,38.99
2023-05-21T18:07:32.660Z,39.10
2023-05-21T18:09:59.526Z,39.14
2023-05-21T18:12:26.317Z,39.28
2023-05-21T18:14:53.300Z,39.35
2023-05-21T18:17:20.141Z,39.42
2023-05-21T18:19:46.915Z,39.59
2023-05-21T18:22:13.904Z,39.76
2023-05-21T18:24:40.960Z,39.84
2023-05-21T18:27:07.754Z,39.85
2023-05-21T18:29:34.493Z,39.92
2023-05-21T18:32:01.397Z,40.04
2023-05-21T18:34:28.696Z,40.15
2023-05-21T18:36:58.771Z,40.23
2023-05-21T18:39:27.060Z,40.25
2023-05-21T18:42:08.892Z,40.45
2023-05-21T18:44:39.964Z,40.47
2023-05-21T18:47:07.713Z,40.58
2023-05-21T18:51:44.162Z,40.88
2023-05-21T18:54:11.113Z,41.10
2023-05-21T18:56:37.868Z,41.19
2023-05-21T18:59:04.645Z,41.29
2023-05-21T19:01:32.017Z,41.71
2023-05-21T19:03:58.834Z,42.00
2023-05-21T19:06:26.460Z,42.14
2023-05-21T19:08:53.529Z,42.31
2023-05-21T19:13:49.977Z,42.47
2023-05-21T19:16:16.776Z,42.68
2023-05-21T19:18:43.859Z,42.64
2023-05-21T19:21:10.832Z,43.14
2023-05-21T19:23:51.220Z,43.35
2023-05-21T19:26:19.201Z,43.35
2023-05-21T19:28:46.124Z,43.20
2023-05-21T19:31:12.886Z,43.54
2023-05-21T19:33:39.680Z,43.41
2023-05-21T19:36:06.797Z,43.50
2023-05-21T19:38:35.786Z,43.56
2023-05-21T19:41:02.576Z,43.67
2023-05-21T19:43:29.384Z,43.60
2023-05-21T19:45:56.230Z,43.71
2023-05-21T19:48:23.015Z,43.89
2023-05-21T19:50:49.924Z,43.98
2023-05-21T19:53:16.677Z,44.07
2023-05-21T19:55:44.400Z,44.23
2023-05-21T19:58:13.377Z,44.48
2023-05-21T20:00:40.280Z,44.49
2023-05-21T20:03:07.239Z,44.62
2023-05-21T20:05:34.092Z,44.74
2023-05-21T20:08:00.782Z,44.87
2023-05-21T20:10:28.214Z,45.22
2023-05-21T20:12:55.074Z,45.80
2023-05-21T20:15:21.829Z,46.45
2023-05-21T20:17:50.368Z,47.07
2023-05-21T20:20:18.737Z,47.37
2023-05-21T20:22:45.967Z,48.06
2023-05-21T20:25:12.724Z,48.53
2023-05-21T20:27:39.482Z,48.80
2023-05-21T20:30:08.924Z,49.39
2023-05-21T20:32:36.496Z,49.97
2023-05-21T20:35:04.126Z,50.43
2023-05-21T20:37:32.543Z,50.96
2023-05-21T20:39:59.949Z,50.70
2023-05-21T20:42:28.797Z,50.85
2023-05-21T20:44:58.889Z,51.08
2023-05-21T20:47:30.080Z,50.71
2023-05-21T20:49:59.045Z,50.59
2023-05-21T20:52:25.990Z,50.52
2023-05-21T20:54:54.668Z,50.38
2023-05-21T20:57:26.187Z,50.60
2023-05-21T20:59:53.442Z,51.07
2023-05-21T21:02:20.832Z,50.97
2023-05-21T21:04:49.155Z,51.44
2023-05-21T21:07:18.176Z,51.50
2023-05-21T21:09:49.214Z,51.55
2023-05-21T21:12:25.787Z,51.43
2023-05-21T21:14:53.254Z,51.68
2023-05-21T21:17:20.145Z,51.79
2023-05-21T21:19:46.886Z,51.78
2023-05-21T21:22:14.992Z,51.82
2023-05-21T21:24:41.880Z,51.91
2023-05-21T21:27:08.640Z,51.71
2023-05-21T21:29:35.376Z,51.39
2023-05-21T21:32:02.398Z,51.69
2023-05-21T21:34:29.384Z,51.41
2023-05-21T21:36:56.121Z,51.81
2023-05-21T21:39:22.913Z,52.02
2023-05-21T21:41:49.688Z,52.05
2023-05-21T21:44:16.440Z,52.24
2023-05-21T21:46:43.181Z,51.98
2023-05-21T21:49:09.955Z,52.12
2023-05-21T21:51:37.032Z,52.62
2023-05-21T21:54:04.212Z,53.11
2023-05-21T21:56:31.012Z,53.50
2023-05-21T21:58:57.736Z,53.89
2023-05-21T22:01:24.950Z,54.04
2023-05-21T22:03:51.757Z,54.32
2023-05-21T22:06:18.669Z,54.41
2023-05-21T22:08:45.522Z,54.53
2023-05-21T22:11:12.363Z,54.70
2023-05-21T22:13:41.614Z,55.10
2023-05-21T22:16:08.485Z,55.55
2023-05-21T22:18:40.391Z,56.04
2023-05-21T22:21:10.650Z,56.94
2023-05-21T22:23:38.751Z,57.33
2023-05-21T22:26:06.598Z,58.06
2023-05-21T22:28:33.447Z,58.38
2023-05-21T22:31:00.354Z,59.13
2023-05-21T22:33:27.132Z,59.76
2023-05-21T22:35:54.588Z,60.33
2023-05-21T22:38:21.581Z,61.29
2023-05-21T22:40:48.570Z,61.77
2023-05-21T22:43:15.380Z,61.79
2023-05-21T22:45:42.354Z,62.45
2023-05-21T22:48:09.543Z,63.30
2023-05-21T22:50:38.584Z,63.30
2023-05-21T22:53:06.428Z,63.49
2023-05-21T22:55:33.224Z,63.57
2023-05-21T22:57:59.971Z,63.97
2023-05-21T23:00:26.904Z,64.09
2023-05-21T23:02:54.756Z,63.25
2023-05-21T23:05:22.385Z,62.62
2023-05-21T23:07:49.540Z,62.80
2023-05-21T23:10:16.396Z,62.98
2023-05-21T23:12:43.222Z,62.49
2023-05-21T23:15:10.867Z,62.04
2023-05-21T23:17:38.403Z,62.06
2023-05-21T23:20:08.825Z,62.40
2023-05-21T23:22:35.932Z,62.66
2023-05-21T23:25:03.260Z,63.42
2023-05-21T23:27:30.088Z,64.46
2023-05-21T23:29:56.839Z,64.66
2023-05-21T23:32:24.012Z,64.66
2023-05-21T23:34:50.924Z,65.70
2023-05-21T23:37:17.876Z,67.01
2023-05-21T23:39:48.215Z,68.63
2023-05-21T23:42:16.468Z,70.40
2023-05-21T23:44:43.314Z,71.19
2023-05-21T23:47:10.129Z,71.50
2023-05-21T23:49:36.966Z,72.28
2023-05-21T23:52:04.054Z,74.07
2023-05-21T23:54:30.907Z,75.25
2023-05-21T23:56:57.649Z,76.59
2023-05-21T23:59:24.441Z,79.72
